sensor_id;sensor_type;location;lat;lon;timestamp;pressure;altitude;pressure_sealevel;temperature;humidity
36798;BME280;22748;8.426;99.512;2023-10-08T00:00:25;100908.88;;;28.61;69.51
36798;BME280;22748;8.426;99.512;2023-10-08T00:03:17;100919.00;;;28.59;69.60
36798;BME280;22748;8.426;99.512;2023-10-08T00:05:49;100907.44;;;28.58;69.66
36798;BME280;22748;8.426;99.512;2023-10-08T00:08:25;100917.72;;;28.55;69.93
36798;BME280;22748;8.426;99.512;2023-10-08T00:11:02;100920.03;;;28.58;69.83
36798;BME280;22748;8.426;99.512;2023-10-08T00:13:38;100923.09;;;28.55;70.33
36798;BME280;22748;8.426;99.512;2023-10-08T00:16:24;100921.47;;;28.54;70.34
36798;BME280;22748;8.426;99.512;2023-10-08T00:18:56;100921.91;;;28.57;70.54
36798;BME280;22748;8.426;99.512;2023-10-08T00:21:27;100924.38;;;28.59;70.38
36798;BME280;22748;8.426;99.512;2023-10-08T00:24:10;100922.31;;;28.61;70.43
36798;BME280;22748;8.426;99.512;2023-10-08T00:26:42;100927.31;;;28.64;70.50
36798;BME280;22748;8.426;99.512;2023-10-08T00:29:14;100933.31;;;28.66;70.37
36798;BME280;22748;8.426;99.512;2023-10-08T00:31:49;100934.13;;;28.66;70.42
36798;BME280;22748;8.426;99.512;2023-10-08T00:34:24;100935.59;;;28.69;70.05
36798;BME280;22748;8.426;99.512;2023-10-08T00:36:55;100935.41;;;28.70;70.26
36798;BME280;22748;8.426;99.512;2023-10-08T00:39:26;100931.84;;;28.70;70.36
36798;BME280;22748;8.426;99.512;2023-10-08T00:42:01;100940.56;;;28.72;70.41
36798;BME280;22748;8.426;99.512;2023-10-08T00:44:34;100940.16;;;28.75;70.56
36798;BME280;22748;8.426;99.512;2023-10-08T00:47:16;100945.13;;;28.78;70.15
36798;BME280;22748;8.426;99.512;2023-10-08T00:49:54;100951.31;;;28.79;70.46
36798;BME280;22748;8.426;99.512;2023-10-08T00:52:37;100952.19;;;28.79;70.51
36798;BME280;22748;8.426;99.512;2023-10-08T00:55:28;100956.75;;;28.85;70.29
36798;BME280;22748;8.426;99.512;2023-10-08T00:58:02;100958.41;;;28.86;70.88
36798;BME280;22748;8.426;99.512;2023-10-08T01:00:52;100965.66;;;28.92;70.50
36798;BME280;22748;8.426;99.512;2023-10-08T01:03:41;100970.00;;;28.93;70.70
36798;BME280;22748;8.426;99.512;2023-10-08T01:06:14;100973.31;;;28.96;70.50
36798;BME280;22748;8.426;99.512;2023-10-08T01:09:02;100972.50;;;29.02;70.60
36798;BME280;22748;8.426;99.512;2023-10-08T01:12:08;100972.50;;;29.02;71.04
36798;BME280;22748;8.426;99.512;2023-10-08T01:14:40;100976.88;;;29.03;70.72
36798;BME280;22748;8.426;99.512;2023-10-08T01:17:23;100978.31;;;28.99;71.09
36798;BME280;22748;8.426;99.512;2023-10-08T01:19:54;100979.09;;;28.86;71.02
36798;BME280;22748;8.426;99.512;2023-10-08T01:22:37;100992.13;;;28.96;71.07
36798;BME280;22748;8.426;99.512;2023-10-08T01:25:09;100991.31;;;28.95;70.72
36798;BME280;22748;8.426;99.512;2023-10-08T01:27:48;100994.81;;;28.89;71.27
36798;BME280;22748;8.426;99.512;2023-10-08T01:30:18;100994.22;;;29.00;70.97
36798;BME280;22748;8.426;99.512;2023-10-08T01:32:49;100994.53;;;29.12;70.66
36798;BME280;22748;8.426;99.512;2023-10-08T01:35:20;100994.34;;;29.20;70.29
36798;BME280;22748;8.426;99.512;2023-10-08T01:37:57;100992.88;;;29.18;70.52
36798;BME280;22748;8.426;99.512;2023-10-08T01:40:32;100989.91;;;29.06;70.01
36798;BME280;22748;8.426;99.512;2023-10-08T01:43:03;100994.72;;;29.17;69.57
36798;BME280;22748;8.426;99.512;2023-10-08T01:45:37;100996.19;;;29.26;69.14
36798;BME280;22748;8.426;99.512;2023-10-08T01:48:11;101004.28;;;29.33;68.89
36798;BME280;22748;8.426;99.512;2023-10-08T01:50:42;101006.16;;;29.32;69.03
36798;BME280;22748;8.426;99.512;2023-10-08T01:53:22;101008.63;;;29.27;69.30
36798;BME280;22748;8.426;99.512;2023-10-08T01:55:58;100998.31;;;29.38;69.74
36798;BME280;22748;8.426;99.512;2023-10-08T01:58:34;101007.84;;;29.47;69.41
36798;BME280;22748;8.426;99.512;2023-10-08T02:01:06;101007.88;;;29.53;69.14
36798;BME280;22748;8.426;99.512;2023-10-08T02:03:41;101007.06;;;29.60;68.88
36798;BME280;22748;8.426;99.512;2023-10-08T02:06:13;101004.56;;;29.65;68.50
36798;BME280;22748;8.426;99.512;2023-10-08T02:08:47;101003.31;;;29.67;68.15
36798;BME280;22748;8.426;99.512;2023-10-08T02:11:19;101006.88;;;29.74;68.30
36798;BME280;22748;8.426;99.512;2023-10-08T02:13:49;101011.44;;;29.81;68.40
36798;BME280;22748;8.426;99.512;2023-10-08T02:16:19;101006.69;;;29.83;68.55
36798;BME280;22748;8.426;99.512;2023-10-08T02:18:51;101001.28;;;29.83;68.28
36798;BME280;22748;8.426;99.512;2023-10-08T02:21:22;100995.50;;;29.86;68.31
36798;BME280;22748;8.426;99.512;2023-10-08T02:23:56;100995.09;;;29.89;67.95
36798;BME280;22748;8.426;99.512;2023-10-08T02:26:27;101000.47;;;29.89;67.27
36798;BME280;22748;8.426;99.512;2023-10-08T02:28:59;100998.41;;;29.91;67.04
36798;BME280;22748;8.426;99.512;2023-10-08T02:31:39;101003.34;;;29.94;67.19
36798;BME280;22748;8.426;99.512;2023-10-08T02:34:16;101002.34;;;29.95;66.38
36798;BME280;22748;8.426;99.512;2023-10-08T02:36:48;101003.34;;;29.94;65.96
36798;BME280;22748;8.426;99.512;2023-10-08T02:39:20;100994.88;;;29.97;65.47
36798;BME280;22748;8.426;99.512;2023-10-08T02:41:53;101001.72;;;30.00;65.69
36798;BME280;22748;8.426;99.512;2023-10-08T02:44:31;101004.81;;;30.03;65.38
36798;BME280;22748;8.426;99.512;2023-10-08T02:47:15;101001.72;;;29.93;64.80
36798;BME280;22748;8.426;99.512;2023-10-08T02:49:53;101001.72;;;30.06;64.93
36798;BME280;22748;8.426;99.512;2023-10-08T02:52:24;101004.59;;;30.11;64.57
36798;BME280;22748;8.426;99.512;2023-10-08T02:58:05;101006.44;;;30.24;63.84
36798;BME280;22748;8.426;99.512;2023-10-08T03:00:39;100998.38;;;30.31;63.67
36798;BME280;22748;8.426;99.512;2023-10-08T03:03:10;101013.09;;;30.35;63.75
36798;BME280;22748;8.426;99.512;2023-10-08T03:05:46;101005.63;;;30.37;63.46
36798;BME280;22748;8.426;99.512;2023-10-08T03:08:17;101008.31;;;30.37;64.12
36798;BME280;22748;8.426;99.512;2023-10-08T03:10:51;101005.22;;;30.40;64.15
36798;BME280;22748;8.426;99.512;2023-10-08T03:13:25;101005.84;;;30.42;63.45
36798;BME280;22748;8.426;99.512;2023-10-08T03:15:56;101008.13;;;30.45;63.35
36798;BME280;22748;8.426;99.512;2023-10-08T03:18:42;101011.00;;;30.50;63.05
36798;BME280;22748;8.426;99.512;2023-10-08T03:21:18;101018.69;;;30.53;63.03
36798;BME280;22748;8.426;99.512;2023-10-08T03:24:12;101009.75;;;30.53;62.95
36798;BME280;22748;8.426;99.512;2023-10-08T03:26:58;101012.44;;;30.53;62.61
36798;BME280;22748;8.426;99.512;2023-10-08T03:29:42;101004.75;;;30.57;63.13
36798;BME280;22748;8.426;99.512;2023-10-08T03:32:13;101002.47;;;30.60;63.27
36798;BME280;22748;8.426;99.512;2023-10-08T03:34:48;101000.00;;;30.59;63.33
36798;BME280;22748;8.426;99.512;2023-10-08T03:37:23;101000.59;;;30.61;63.17
36798;BME280;22748;8.426;99.512;2023-10-08T03:40:08;100998.09;;;30.66;63.15
36798;BME280;22748;8.426;99.512;2023-10-08T03:42:58;100992.09;;;30.64;62.94
36798;BME280;22748;8.426;99.512;2023-10-08T03:45:42;100985.88;;;30.63;62.70
36798;BME280;22748;8.426;99.512;2023-10-08T03:48:43;100985.47;;;30.66;62.43
36798;BME280;22748;8.426;99.512;2023-10-08T03:51:13;100986.91;;;30.69;62.15
36798;BME280;22748;8.426;99.512;2023-10-08T03:53:51;100977.34;;;30.73;62.38
36798;BME280;22748;8.426;99.512;2023-10-08T03:56:38;100982.91;;;30.78;62.50
36798;BME280;22748;8.426;99.512;2023-10-08T03:59:13;100979.19;;;30.86;62.18
36798;BME280;22748;8.426;99.512;2023-10-08T04:02:01;100981.25;;;30.90;61.55
36798;BME280;22748;8.426;99.512;2023-10-08T04:04:43;100979.13;;;30.99;61.45
36798;BME280;22748;8.426;99.512;2023-10-08T04:07:45;100968.72;;;31.03;61.34
36798;BME280;22748;8.426;99.512;2023-10-08T04:10:31;100970.41;;;31.04;61.00
36798;BME280;22748;8.426;99.512;2023-10-08T04:13:29;100973.31;;;31.02;61.12
36798;BME280;22748;8.426;99.512;2023-10-08T04:16:13;100965.84;;;30.98;60.76
36798;BME280;22748;8.426;99.512;2023-10-08T04:18:49;100965.66;;;30.99;60.89
36798;BME280;22748;8.426;99.512;2023-10-08T04:21:23;100963.34;;;31.03;61.11
36798;BME280;22748;8.426;99.512;2023-10-08T04:23:56;100961.84;;;31.07;60.33
36798;BME280;22748;8.426;99.512;2023-10-08T04:26:36;100951.66;;;31.15;59.82
36798;BME280;22748;8.426;99.512;2023-10-08T04:29:13;100947.63;;;31.25;59.71
36798;BME280;22748;8.426;99.512;2023-10-08T04:31:50;100942.25;;;31.25;59.98
36798;BME280;22748;8.426;99.512;2023-10-08T04:34:43;100936.84;;;31.25;60.21
36798;BME280;22748;8.426;99.512;2023-10-08T04:37:14;100937.84;;;31.30;60.02
36798;BME280;22748;8.426;99.512;2023-10-08T04:39:48;100939.06;;;31.34;59.85
36798;BME280;22748;8.426;99.512;2023-10-08T04:42:26;100925.97;;;31.38;59.83
36798;BME280;22748;8.426;99.512;2023-10-08T04:45:05;100924.91;;;31.46;59.66
36798;BME280;22748;8.426;99.512;2023-10-08T04:47:42;100925.50;;;31.48;59.64
36798;BME280;22748;8.426;99.512;2023-10-08T04:50:20;100909.94;;;31.50;58.64
36798;BME280;22748;8.426;99.512;2023-10-08T04:52:59;100902.44;;;31.52;59.20
36798;BME280;22748;8.426;99.512;2023-10-08T04:55:36;100903.25;;;31.52;58.56
36798;BME280;22748;8.426;99.512;2023-10-08T04:58:16;100896.59;;;31.55;58.55
36798;BME280;22748;8.426;99.512;2023-10-08T05:00:58;100888.47;;;31.55;58.82
36798;BME280;22748;8.426;99.512;2023-10-08T05:03:46;100890.56;;;31.53;59.43
36798;BME280;22748;8.426;99.512;2023-10-08T05:06:47;100889.09;;;31.57;58.83
36798;BME280;22748;8.426;99.512;2023-10-08T05:09:34;100879.50;;;31.61;58.78
36798;BME280;22748;8.426;99.512;2023-10-08T05:12:40;100874.09;;;31.61;58.06
36798;BME280;22748;8.426;99.512;2023-10-08T05:15:30;100868.66;;;31.68;57.57
36798;BME280;22748;8.426;99.512;2023-10-08T05:18:10;100864.03;;;31.75;58.07
36798;BME280;22748;8.426;99.512;2023-10-08T05:20:47;100859.38;;;31.82;57.89
36798;BME280;22748;8.426;99.512;2023-10-08T05:23:56;100855.25;;;31.80;58.43
36798;BME280;22748;8.426;99.512;2023-10-08T05:26:42;100848.19;;;31.78;58.37
36798;BME280;22748;8.426;99.512;2023-10-08T05:29:17;100844.06;;;31.76;58.32
36798;BME280;22748;8.426;99.512;2023-10-08T05:32:05;100845.47;;;31.78;57.97
36798;BME280;22748;8.426;99.512;2023-10-08T05:34:52;100843.84;;;31.77;58.45
36798;BME280;22748;8.426;99.512;2023-10-08T05:37:43;100834.00;;;31.83;58.28
36798;BME280;22748;8.426;99.512;2023-10-08T05:40:16;100837.69;;;31.89;58.36
36798;BME280;22748;8.426;99.512;2023-10-08T05:43:01;100832.28;;;31.89;57.76
36798;BME280;22748;8.426;99.512;2023-10-08T05:45:51;100834.38;;;31.87;58.24
36798;BME280;22748;8.426;99.512;2023-10-08T05:48:44;100827.72;;;31.89;57.99
36798;BME280;22748;8.426;99.512;2023-10-08T05:51:42;100823.50;;;31.93;57.87
36798;BME280;22748;8.426;99.512;2023-10-08T05:54:14;100815.19;;;31.95;56.78
36798;BME280;22748;8.426;99.512;2023-10-08T05:56:59;100820.59;;;31.95;57.66
36798;BME280;22748;8.426;99.512;2023-10-08T05:59:43;100813.47;;;32.01;57.18
36798;BME280;22748;8.426;99.512;2023-10-08T06:02:41;100814.00;;;32.09;57.03
36798;BME280;22748;8.426;99.512;2023-10-08T06:05:28;100804.16;;;32.15;56.40
36798;BME280;22748;8.426;99.512;2023-10-08T06:08:02;100799.59;;;32.15;55.83
36798;BME280;22748;8.426;99.512;2023-10-08T06:10:41;100802.66;;;32.19;55.95
36798;BME280;22748;8.426;99.512;2023-10-08T06:13:15;100793.28;;;32.22;55.94
36798;BME280;22748;8.426;99.512;2023-10-08T06:15:59;100794.91;;;32.23;56.32
36798;BME280;22748;8.426;99.512;2023-10-08T06:18:36;100789.97;;;32.20;56.03
36798;BME280;22748;8.426;99.512;2023-10-08T06:21:06;100779.97;;;32.20;56.21
36798;BME280;22748;8.426;99.512;2023-10-08T06:23:37;100781.41;;;32.23;56.83
36798;BME280;22748;8.426;99.512;2023-10-08T06:26:09;100773.97;;;32.18;57.08
36798;BME280;22748;8.426;99.512;2023-10-08T06:28:54;100772.56;;;32.15;56.59
36798;BME280;22748;8.426;99.512;2023-10-08T06:31:26;100767.53;;;32.19;56.13
36798;BME280;22748;8.426;99.512;2023-10-08T06:34:00;100763.63;;;32.15;56.85
36798;BME280;22748;8.426;99.512;2023-10-08T06:36:32;100754.72;;;32.14;56.59
36798;BME280;22748;8.426;99.512;2023-10-08T06:39:03;100746.16;;;32.17;56.99
36798;BME280;22748;8.426;99.512;2023-10-08T06:41:39;100749.44;;;32.20;56.54
36798;BME280;22748;8.426;99.512;2023-10-08T06:44:11;100743.13;;;32.26;56.33
36798;BME280;22748;8.426;99.512;2023-10-08T06:46:49;100738.44;;;32.33;56.37
36798;BME280;22748;8.426;99.512;2023-10-08T06:49:23;100726.72;;;32.39;56.46
36798;BME280;22748;8.426;99.512;2023-10-08T06:51:55;100716.50;;;32.41;56.28
36798;BME280;22748;8.426;99.512;2023-10-08T06:54:27;100707.69;;;32.46;56.04
36798;BME280;22748;8.426;99.512;2023-10-08T06:56:59;100706.88;;;32.45;56.46
36798;BME280;22748;8.426;99.512;2023-10-08T06:59:33;100708.50;;;32.46;56.26
36798;BME280;22748;8.426;99.512;2023-10-08T07:02:10;100695.16;;;32.51;56.28
36798;BME280;22748;8.426;99.512;2023-10-08T07:04:44;100694.28;;;32.51;55.32
36798;BME280;22748;8.426;99.512;2023-10-08T07:07:19;100695.16;;;32.51;55.93
36798;BME280;22748;8.426;99.512;2023-10-08T07:09:50;100684.94;;;32.53;55.90
36798;BME280;22748;8.426;99.512;2023-10-08T07:12:25;100679.97;;;32.50;56.15
36798;BME280;22748;8.426;99.512;2023-10-08T07:14:59;100677.25;;;32.50;56.09
36798;BME280;22748;8.426;99.512;2023-10-08T07:17:41;100670.97;;;32.56;54.89
36798;BME280;22748;8.426;99.512;2023-10-08T07:20:23;100656.50;;;32.63;54.66
36798;BME280;22748;8.426;99.512;2023-10-08T07:22:56;100650.75;;;32.59;55.44
36798;BME280;22748;8.426;99.512;2023-10-08T07:25:30;100649.34;;;32.56;55.33
36798;BME280;22748;8.426;99.512;2023-10-08T07:28:16;100638.88;;;32.60;54.70
36798;BME280;22748;8.426;99.512;2023-10-08T07:30:56;100640.88;;;32.65;55.19
36798;BME280;22748;8.426;99.512;2023-10-08T07:33:27;100643.69;;;32.70;54.84
36798;BME280;22748;8.426;99.512;2023-10-08T07:36:05;100634.88;;;32.74;54.61
36798;BME280;22748;8.426;99.512;2023-10-08T07:38:43;100626.53;;;32.76;54.86
36798;BME280;22748;8.426;99.512;2023-10-08T07:41:17;100619.47;;;32.75;54.95
36798;BME280;22748;8.426;99.512;2023-10-08T07:43:48;100625.59;;;32.82;54.48
36798;BME280;22748;8.426;99.512;2023-10-08T07:46:25;100618.66;;;32.86;55.01
36798;BME280;22748;8.426;99.512;2023-10-08T07:48:56;100613.34;;;32.91;54.30
36798;BME280;22748;8.426;99.512;2023-10-08T07:51:28;100614.53;;;32.95;53.74
36798;BME280;22748;8.426;99.512;2023-10-08T07:53:59;100610.28;;;32.99;53.51
36798;BME280;22748;8.426;99.512;2023-10-08T07:56:29;100607.81;;;32.98;54.08
36798;BME280;22748;8.426;99.512;2023-10-08T07:58:59;100604.50;;;32.96;54.20
36798;BME280;22748;8.426;99.512;2023-10-08T08:01:38;100605.81;;;32.93;54.73
36798;BME280;22748;8.426;99.512;2023-10-08T08:04:10;100599.00;;;32.91;54.26
36798;BME280;22748;8.426;99.512;2023-10-08T08:06:50;100597.22;;;32.96;54.42
36798;BME280;22748;8.426;99.512;2023-10-08T08:09:21;100599.09;;;32.96;54.66
36798;BME280;22748;8.426;99.512;2023-10-08T08:11:54;100595.00;;;32.93;54.32
36798;BME280;22748;8.426;99.512;2023-10-08T08:14:38;100603.47;;;32.97;54.46
36798;BME280;22748;8.426;99.512;2023-10-08T08:17:11;100598.97;;;33.03;54.54
36798;BME280;22748;8.426;99.512;2023-10-08T08:19:46;100598.06;;;33.09;54.99
36798;BME280;22748;8.426;99.512;2023-10-08T08:22:35;100603.47;;;33.09;55.07
36798;BME280;22748;8.426;99.512;2023-10-08T08:25:09;100600.19;;;33.07;55.28
36798;BME280;22748;8.426;99.512;2023-10-08T08:28:05;100601.00;;;33.07;55.29
36798;BME280;22748;8.426;99.512;2023-10-08T08:30:46;100600.38;;;33.05;55.23
36798;BME280;22748;8.426;99.512;2023-10-08T08:33:40;100611.00;;;33.07;55.18
36798;BME280;22748;8.426;99.512;2023-10-08T08:36:24;100611.81;;;33.07;55.41
36798;BME280;22748;8.426;99.512;2023-10-08T08:38:55;100615.22;;;33.03;55.50
36798;BME280;22748;8.426;99.512;2023-10-08T08:41:26;100620.84;;;33.01;55.35
36798;BME280;22748;8.426;99.512;2023-10-08T08:44:04;100617.09;;;33.02;55.34
36798;BME280;22748;8.426;99.512;2023-10-08T08:46:36;100616.88;;;33.04;55.07
36798;BME280;22748;8.426;99.512;2023-10-08T08:49:09;100621.00;;;33.06;54.78
36798;BME280;22748;8.426;99.512;2023-10-08T08:51:46;100616.41;;;33.07;54.98
36798;BME280;22748;8.426;99.512;2023-10-08T08:54:21;100618.31;;;33.06;55.18
36798;BME280;22748;8.426;99.512;2023-10-08T08:56:52;100616.41;;;33.07;55.02
36798;BME280;22748;8.426;99.512;2023-10-08T08:59:48;100621.00;;;33.06;55.17
36798;BME280;22748;8.426;99.512;2023-10-08T09:02:20;100619.22;;;33.12;55.03
36798;BME280;22748;8.426;99.512;2023-10-08T09:05:20;100622.50;;;33.14;54.73
36798;BME280;22748;8.426;99.512;2023-10-08T09:07:58;100623.59;;;33.13;54.25
36798;BME280;22748;8.426;99.512;2023-10-08T09:10:39;100622.50;;;33.14;53.54
36798;BME280;22748;8.426;99.512;2023-10-08T09:13:26;100623.81;;;33.23;53.22
36798;BME280;22748;8.426;99.512;2023-10-08T09:16:09;100627.66;;;33.27;51.93
36798;BME280;22748;8.426;99.512;2023-10-08T09:18:43;100621.78;;;33.30;52.40
36798;BME280;22748;8.426;99.512;2023-10-08T09:21:35;100626.97;;;33.32;52.62
36798;BME280;22748;8.426;99.512;2023-10-08T09:24:25;100628.38;;;33.34;52.66
36798;BME280;22748;8.426;99.512;2023-10-08T09:26:56;100630.81;;;33.36;52.88
36798;BME280;22748;8.426;99.512;2023-10-08T09:29:27;100631.66;;;33.36;52.72
36798;BME280;22748;8.426;99.512;2023-10-08T09:31:58;100634.94;;;33.38;52.47
36798;BME280;22748;8.426;99.512;2023-10-08T09:34:37;100628.47;;;33.39;52.23
36798;BME280;22748;8.426;99.512;2023-10-08T09:37:32;100622.00;;;33.40;52.54
36798;BME280;22748;8.426;99.512;2023-10-08T09:40:05;100615.66;;;33.35;52.74
36798;BME280;22748;8.426;99.512;2023-10-08T09:42:40;100622.94;;;33.34;52.25
36798;BME280;22748;8.426;99.512;2023-10-08T09:45:15;100619.66;;;33.32;52.82
36798;BME280;22748;8.426;99.512;2023-10-08T09:47:53;100614.47;;;33.31;52.98
36798;BME280;22748;8.426;99.512;2023-10-08T09:50:30;100622.09;;;33.34;52.51
36798;BME280;22748;8.426;99.512;2023-10-08T09:53:14;100616.22;;;33.37;52.86
36798;BME280;22748;8.426;99.512;2023-10-08T09:55:53;100617.78;;;33.33;52.90
36798;BME280;22748;8.426;99.512;2023-10-08T09:58:25;100626.72;;;33.33;53.14
36798;BME280;22748;8.426;99.512;2023-10-08T10:00:57;100626.72;;;33.33;53.16
36798;BME280;22748;8.426;99.512;2023-10-08T10:03:29;100631.53;;;33.31;53.03
36798;BME280;22748;8.426;99.512;2023-10-08T10:06:13;100634.25;;;33.31;53.36
36798;BME280;22748;8.426;99.512;2023-10-08T10:08:49;100632.13;;;33.33;53.24
36798;BME280;22748;8.426;99.512;2023-10-08T10:11:20;100626.25;;;33.36;53.23
36798;BME280;22748;8.426;99.512;2023-10-08T10:13:59;100631.41;;;33.38;53.31
36798;BME280;22748;8.426;99.512;2023-10-08T10:16:31;100625.25;;;33.43;53.13
36798;BME280;22748;8.426;99.512;2023-10-08T10:19:02;100632.34;;;33.44;53.47
36798;BME280;22748;8.426;99.512;2023-10-08T10:21:34;100642.56;;;33.42;54.07
36798;BME280;22748;8.426;99.512;2023-10-08T10:24:23;100638.69;;;33.37;54.36
36798;BME280;22748;8.426;99.512;2023-10-08T10:27:20;100649.06;;;33.40;54.15
36798;BME280;22748;8.426;99.512;2023-10-08T10:29:53;100645.28;;;33.42;54.09
36798;BME280;22748;8.426;99.512;2023-10-08T10:32:39;100651.78;;;33.40;54.62
36798;BME280;22748;8.426;99.512;2023-10-08T10:35:21;100649.06;;;33.40;54.92
36798;BME280;22748;8.426;99.512;2023-10-08T10:37:51;100656.34;;;33.40;54.96
36798;BME280;22748;8.426;99.512;2023-10-08T10:40:25;100653.31;;;33.36;55.67
36798;BME280;22748;8.426;99.512;2023-10-08T10:43:06;100662.47;;;33.35;55.48
36798;BME280;22748;8.426;99.512;2023-10-08T10:45:39;100673.06;;;33.37;55.72
36798;BME280;22748;8.426;99.512;2023-10-08T10:48:10;100677.69;;;33.36;55.64
36798;BME280;22748;8.426;99.512;2023-10-08T10:50:42;100685.78;;;33.36;55.51
36798;BME280;22748;8.426;99.512;2023-10-08T10:53:37;100688.25;;;33.38;55.42
36798;BME280;22748;8.426;99.512;2023-10-08T10:56:18;100698.25;;;33.37;56.05
36798;BME280;22748;8.426;99.512;2023-10-08T10:59:00;100700.97;;;33.37;56.24
36798;BME280;22748;8.426;99.512;2023-10-08T11:01:46;100707.69;;;33.35;56.31
36798;BME280;22748;8.426;99.512;2023-10-08T11:04:20;100715.44;;;33.31;56.72
36798;BME280;22748;8.426;99.512;2023-10-08T11:06:57;100717.56;;;33.29;56.43
36798;BME280;22748;8.426;99.512;2023-10-08T11:09:29;100726.75;;;33.28;57.05
36798;BME280;22748;8.426;99.512;2023-10-08T11:12:15;100735.91;;;33.27;57.01
36798;BME280;22748;8.426;99.512;2023-10-08T11:15:11;100741.34;;;33.27;57.13
36798;BME280;22748;8.426;99.512;2023-10-08T11:17:43;100745.94;;;33.27;57.17
36798;BME280;22748;8.426;99.512;2023-10-08T11:20:30;100760.75;;;33.24;57.53
36798;BME280;22748;8.426;99.512;2023-10-08T11:23:01;100765.22;;;33.18;57.59
36798;BME280;22748;8.426;99.512;2023-10-08T11:26:02;100776.91;;;33.19;57.72
36798;BME280;22748;8.426;99.512;2023-10-08T11:28:41;100786.06;;;33.18;58.06
36798;BME280;22748;8.426;99.512;2023-10-08T11:31:22;100794.53;;;33.22;57.74
36798;BME280;22748;8.426;99.512;2023-10-08T11:34:32;100799.81;;;33.16;57.95
36798;BME280;22748;8.426;99.512;2023-10-08T11:37:07;100804.88;;;33.13;58.47
36798;BME280;22748;8.426;99.512;2023-10-08T11:39:47;100822.06;;;33.07;58.90
36798;BME280;22748;8.426;99.512;2023-10-08T11:42:19;100836.63;;;33.06;59.06
36798;BME280;22748;8.426;99.512;2023-10-08T11:45:08;100834.97;;;33.05;59.21
36798;BME280;22748;8.426;99.512;2023-10-08T11:47:54;100836.03;;;33.04;59.32
36798;BME280;22748;8.426;99.512;2023-10-08T11:50:32;100827.06;;;33.03;59.29
36798;BME280;22748;8.426;99.512;2023-10-08T11:53:02;100829.53;;;33.05;59.41
36798;BME280;22748;8.426;99.512;2023-10-08T11:55:41;100819.34;;;33.07;59.59
36798;BME280;22748;8.426;99.512;2023-10-08T11:58:12;100830.16;;;33.07;59.55
36798;BME280;22748;8.426;99.512;2023-10-08T12:00:47;100838.28;;;33.07;59.58
36798;BME280;22748;8.426;99.512;2023-10-08T12:03:19;100839.09;;;33.07;59.75
36798;BME280;22748;8.426;99.512;2023-10-08T12:05:56;100843.06;;;33.05;60.01
36798;BME280;22748;8.426;99.512;2023-10-08T12:08:28;100848.72;;;33.03;59.97
36798;BME280;22748;8.426;99.512;2023-10-08T12:11:01;100853.31;;;33.03;60.10
36798;BME280;22748;8.426;99.512;2023-10-08T12:13:32;100855.19;;;33.02;60.42
36798;BME280;22748;8.426;99.512;2023-10-08T12:16:05;100857.91;;;33.02;60.22
36798;BME280;22748;8.426;99.512;2023-10-08T12:18:39;100851.66;;;33.02;60.37
36798;BME280;22748;8.426;99.512;2023-10-08T12:21:15;100853.53;;;33.01;60.53
36798;BME280;22748;8.426;99.512;2023-10-08T12:23:52;100858.72;;;33.03;60.42
36798;BME280;22748;8.426;99.512;2023-10-08T12:26:23;100855.41;;;33.00;60.61
36798;BME280;22748;8.426;99.512;2023-10-08T12:28:53;100872.03;;;33.04;60.53
36798;BME280;22748;8.426;99.512;2023-10-08T12:31:32;100881.78;;;33.05;60.47
36798;BME280;22748;8.426;99.512;2023-10-08T12:34:04;100888.63;;;33.08;60.19
36798;BME280;22748;8.426;99.512;2023-10-08T12:36:35;100891.59;;;33.06;59.99
36798;BME280;22748;8.426;99.512;2023-10-08T12:39:03;100900.13;;;33.03;59.71
36798;BME280;22748;8.426;99.512;2023-10-08T12:41:43;100893.88;;;33.03;59.60
36798;BME280;22748;8.426;99.512;2023-10-08T12:44:20;100903.53;;;32.98;59.67
36798;BME280;22748;8.426;99.512;2023-10-08T12:47:07;100912.81;;;33.03;59.36
36798;BME280;22748;8.426;99.512;2023-10-08T12:49:38;100917.88;;;32.99;58.96
36798;BME280;22748;8.426;99.512;2023-10-08T12:52:15;100918.34;;;32.96;58.88
36798;BME280;22748;8.426;99.512;2023-10-08T12:54:47;100926.22;;;32.97;58.83
36798;BME280;22748;8.426;99.512;2023-10-08T12:57:21;100930.44;;;32.93;58.76
36798;BME280;22748;8.426;99.512;2023-10-08T13:00:00;100937.16;;;32.91;59.13
36798;BME280;22748;8.426;99.512;2023-10-08T13:02:32;100930.06;;;32.90;58.80
36798;BME280;22748;8.426;99.512;2023-10-08T13:05:07;100940.38;;;32.81;58.96
36798;BME280;22748;8.426;99.512;2023-10-08T13:07:43;100948.38;;;32.76;58.97
36798;BME280;22748;8.426;99.512;2023-10-08T13:10:16;100959.63;;;32.73;59.19
36798;BME280;22748;8.426;99.512;2023-10-08T13:12:47;100963.53;;;32.77;59.29
36798;BME280;22748;8.426;99.512;2023-10-08T13:15:20;100963.31;;;32.78;58.87
36798;BME280;22748;8.426;99.512;2023-10-08T13:18:00;100962.94;;;32.75;59.17
36798;BME280;22748;8.426;99.512;2023-10-08T13:20:31;100971.03;;;32.75;59.07
36798;BME280;22748;8.426;99.512;2023-10-08T13:23:02;100972.31;;;32.72;59.22
36798;BME280;22748;8.426;99.512;2023-10-08T13:25:32;100961.16;;;32.69;58.92
36798;BME280;22748;8.426;99.512;2023-10-08T13:28:09;100957.84;;;32.67;59.13
36798;BME280;22748;8.426;99.512;2023-10-08T13:30:39;100967.00;;;32.66;59.90
36798;BME280;22748;8.426;99.512;2023-10-08T13:33:11;100956.56;;;32.69;59.65
36798;BME280;22748;8.426;99.512;2023-10-08T13:35:47;100964.22;;;32.72;59.50
36798;BME280;22748;8.426;99.512;2023-10-08T13:38:20;100968.34;;;32.75;59.73
36798;BME280;22748;8.426;99.512;2023-10-08T13:40:50;100975.19;;;32.77;59.79
36798;BME280;22748;8.426;99.512;2023-10-08T13:43:48;100972.50;;;32.77;60.05
36798;BME280;22748;8.426;99.512;2023-10-08T13:46:19;100974.34;;;32.77;60.13
36798;BME280;22748;8.426;99.512;2023-10-08T13:48:53;100976.84;;;32.78;60.27